Strona główna
METAR-TAF:

METAR-TAF

Lotnisko :

Nashua, New Hampshire, Stany Zjednoczone

Szerokość geograficzna: 42-47N, Długość geograficzna: 071-31W, wysokość: 61 m

Aktualna obserwacja pogody

Raport powstał 48 minut temu, godzina 09:56 UTC
Wiatr 3 kt od zachodnio-północny zachód
Temperatura -4°C
Wilgotność 93%
Ciśnienie 1021 hPa
Widzialność: 16.1 km
bezchmurnie

METAR: KASH 220956Z AUTO 29003KT 10SM CLR M04/M05 A3014 RMK AO2 SLP217 T10441050

czas: 06:44 (10:44 UTC)


TAF: brakujący

Obserwacja i prognoza pogody dla ponad 4000 lotnisk (raport METAR i TAF).

Dostępne stacje oznaczono żółtymi i czerwonymi punktami na mapie.

Najedź kursorem aby zobaczyć nazwę stacji.

Kliknij aby zobaczyć obserwacje i prognozy pogody.

Aby zmienić mapę: kliknij na zielony przycisk z czarnym krzyżykiem, aby powiększyć; na zielony przycisk z myślnikiem, aby pomniejszyć; na zielone strzałki, aby przejść do map sąsiednich.


METAR-TAF: